Time;durP1;ratioP1;P1;durP2;ratioP2;P2;SDS_P1;SDS_P2;PMS_P1;PMS_P2;Temp;Humidity;BMP_temperature;BMP_pressure;BME280_temperature;BME280_humidity;BME280_pressure;Samples;Min_cycle;Max_cycle;Signal;HPM_P1;HPM_P2
2022/11/08 00:01:51;;;;;;;2.85;1.17;;;15.10;77.70;;;;;;5019672;28;20061;-94
2022/11/08 00:04:17;;;;;;;1.05;0.98;;;15.10;77.80;;;;;;5031998;28;20029;-94
2022/11/08 00:14:56;;;;;;;1.55;1.13;;;14.90;78.00;;;;;;5028071;28;20104;-89
2022/11/08 00:17:24;;;;;;;0.85;0.82;;;14.90;78.10;;;;;;5044043;28;20055;-89
2022/11/08 00:19:50;;;;;;;3.80;1.13;;;14.90;78.30;;;;;;5027263;28;20026;-89
2022/11/08 00:22:17;;;;;;;3.05;1.17;;;14.90;78.40;;;;;;5012561;28;20033;-89
2022/11/08 00:24:43;;;;;;;0.98;0.80;;;14.90;78.40;;;;;;5030377;28;20096;-94
2022/11/08 00:27:20;;;;;;;3.28;0.80;;;14.90;78.40;;;;;;5031722;28;20042;-93
2022/11/08 00:29:46;;;;;;;1.02;0.75;;;14.90;78.20;;;;;;5032284;28;20030;-94
2022/11/08 00:32:23;;;;;;;1.38;0.90;;;14.90;78.20;;;;;;5031532;28;20034;-95
2022/11/08 00:34:50;;;;;;;1.42;0.90;;;14.90;78.20;;;;;;5031568;28;20022;-93
2022/11/08 00:37:17;;;;;;;1.35;0.98;;;14.90;78.30;;;;;;5031379;28;20022;-94
2022/11/08 00:39:42;;;;;;;1.70;1.00;;;14.90;78.40;;;;;;5031062;28;20022;-94
2022/11/08 00:42:09;;;;;;;1.35;1.00;;;14.80;78.40;;;;;;5031336;28;20034;-93
2022/11/08 00:44:34;;;;;;;0.80;0.80;;;14.80;78.50;;;;;;5031483;28;20065;-93
2022/11/08 00:47:00;;;;;;;2.58;1.00;;;14.80;78.60;;;;;;5031167;28;20022;-94
2022/11/08 00:49:26;;;;;;;1.00;0.77;;;14.70;78.70;;;;;;5031245;28;20022;-94
2022/11/08 00:51:52;;;;;;;1.70;0.90;;;14.70;78.80;;;;;;5031382;28;20061;-93
2022/11/08 00:54:19;;;;;;;1.13;0.70;;;14.70;78.80;;;;;;5031694;28;20041;-94
2022/11/08 00:56:46;;;;;;;1.30;0.85;;;14.70;78.70;;;;;;5030830;28;20485;-93
2022/11/08 00:59:13;;;;;;;1.17;0.82;;;14.70;78.80;;;;;;5031301;28;20108;-93
2022/11/08 01:01:40;;;;;;;5.65;1.23;;;14.60;78.90;;;;;;5030804;28;20057;-93
2022/11/08 01:04:07;;;;;;;0.98;0.98;;;14.50;79.00;;;;;;5031087;28;20436;-92
2022/11/08 01:06:33;;;;;;;2.67;0.85;;;14.50;78.90;;;;;;5031015;28;20038;-92
2022/11/08 01:08:59;;;;;;;1.85;0.93;;;14.50;78.80;;;;;;5031567;28;20034;-93
2022/11/08 01:11:26;;;;;;;4.47;1.65;;;14.50;78.90;;;;;;5031119;28;20034;-93
2022/11/08 01:13:55;;;;;;;3.00;0.73;;;14.40;79.10;;;;;;5030840;28;20036;-92
2022/11/08 01:16:23;;;;;;;4.68;1.02;;;14.40;79.20;;;;;;5030713;28;20060;-94
2022/11/08 01:18:50;;;;;;;6.28;1.17;;;14.40;79.30;;;;;;5030641;28;20018;-92
2022/11/08 01:21:17;;;;;;;4.40;1.30;;;14.30;79.40;;;;;;5029875;28;20034;-90
2022/11/08 01:23:44;;;;;;;2.10;0.98;;;14.30;79.40;;;;;;5029577;28;20036;-89
2022/11/08 01:26:15;;;;;;;2.88;0.90;;;14.30;79.40;;;;;;5011836;28;20524;-90
2022/11/08 01:28:41;;;;;;;3.60;0.82;;;14.30;79.40;;;;;;5028724;28;20029;-90
2022/11/08 01:31:12;;;;;;;2.03;0.90;;;14.20;79.40;;;;;;5029091;28;20026;-90
2022/11/08 01:33:39;;;;;;;3.28;0.93;;;14.20;79.30;;;;;;5029340;28;20477;-92
2022/11/08 01:36:06;;;;;;;1.33;0.70;;;14.20;79.20;;;;;;5016691;28;20030;-93
2022/11/08 01:38:32;;;;;;;2.60;1.70;;;14.20;79.30;;;;;;5034504;28;20123;-94
2022/11/08 01:40:58;;;;;;;5.10;0.80;;;14.10;79.40;;;;;;5034479;28;20026;-93
2022/11/08 01:43:29;;;;;;;2.08;0.85;;;14.10;79.50;;;;;;5016509;28;20022;-89
2022/11/08 01:46:17;;;;;;;2.20;0.90;;;14.10;79.50;;;;;;5016039;28;20099;-89
2022/11/08 01:49:17;;;;;;;1.58;0.70;;;14.10;79.50;;;;;;5022271;28;20523;-91
2022/11/08 01:52:08;;;;;;;1.27;1.15;;;14.00;79.60;;;;;;5033011;28;20420;-89
2022/11/08 01:54:51;;;;;;;4.40;0.93;;;14.00;79.70;;;;;;5021026;28;20080;-89
2022/11/08 01:57:22;;;;;;;1.35;1.00;;;14.00;79.70;;;;;;5018058;28;20113;-90
2022/11/08 01:59:51;;;;;;;1.10;0.93;;;13.90;79.80;;;;;;5017884;28;20029;-95
2022/11/08 02:02:18;;;;;;;1.20;0.60;;;13.90;79.80;;;;;;5034828;28;20502;-92
2022/11/08 02:04:44;;;;;;;1.42;1.13;;;13.90;79.80;;;;;;5035260;28;20516;-92
2022/11/08 02:07:12;;;;;;;1.20;0.80;;;13.90;79.90;;;;;;5033451;28;20057;-92
2022/11/08 02:09:41;;;;;;;1.27;0.68;;;13.90;79.90;;;;;;5036044;28;20022;-94
2022/11/08 02:12:07;;;;;;;2.03;0.90;;;13.90;79.90;;;;;;5033974;28;20034;-90
2022/11/08 02:14:34;;;;;;;2.92;1.40;;;13.80;80.00;;;;;;5032948;28;20369;-89
2022/11/08 02:17:00;;;;;;;3.60;1.25;;;13.80;80.10;;;;;;5016199;28;20030;-89
2022/11/08 02:19:43;;;;;;;1.40;0.60;;;13.80;80.10;;;;;;5012205;28;20041;-90
2022/11/08 02:22:32;;;;;;;1.38;0.93;;;13.80;80.20;;;;;;5029795;28;20080;-90
2022/11/08 02:24:59;;;;;;;0.63;0.63;;;13.80;80.30;;;;;;5027896;28;20037;-89
2022/11/08 02:27:25;;;;;;;1.40;0.77;;;13.70;80.30;;;;;;5046231;28;20060;-90
2022/11/08 02:29:55;;;;;;;1.30;0.95;;;13.70;80.40;;;;;;5030904;28;20023;-94
2022/11/08 02:32:21;;;;;;;1.25;0.90;;;13.70;80.50;;;;;;5017009;28;20018;-93
2022/11/08 02:34:57;;;;;;;1.55;0.80;;;13.70;80.50;;;;;;4983849;28;20097;-94
2022/11/08 02:37:24;;;;;;;3.13;0.93;;;13.70;80.50;;;;;;5016240;28;20477;-94
2022/11/08 02:39:50;;;;;;;0.50;0.50;;;13.70;80.70;;;;;;5016801;28;20052;-91
2022/11/08 02:42:18;;;;;;;2.38;1.05;;;13.70;80.60;;;;;;5033476;28;20034;-90
2022/11/08 02:44:48;;;;;;;1.10;1.00;;;13.70;80.70;;;;;;5043335;28;20048;-91
2022/11/08 02:47:14;;;;;;;0.77;0.75;;;13.70;80.80;;;;;;5033339;28;20029;-91
2022/11/08 02:49:40;;;;;;;1.67;0.82;;;13.60;80.80;;;;;;5016627;28;20030;-91
2022/11/08 02:52:06;;;;;;;4.47;1.30;;;13.60;81.00;;;;;;5008051;28;20037;-91
2022/11/08 02:54:32;;;;;;;4.05;1.25;;;13.60;81.10;;;;;;5025195;28;20080;-90
2022/11/08 02:56:58;;;;;;;1.45;1.08;;;13.50;81.20;;;;;;5047626;28;20017;-95
2022/11/08 02:59:23;;;;;;;1.67;1.00;;;13.60;81.30;;;;;;5035002;28;20018;-92
2022/11/08 03:01:49;;;;;;;3.15;1.35;;;13.60;81.30;;;;;;5032974;28;20026;-90
2022/11/08 03:04:15;;;;;;;5.00;1.50;;;13.60;81.30;;;;;;5015407;28;20076;-91
2022/11/08 03:06:40;;;;;;;3.20;1.17;;;13.60;81.40;;;;;;4987642;28;20050;-90
2022/11/08 03:09:06;;;;;;;10.25;1.13;;;13.50;81.40;;;;;;5015152;28;20034;-89
2022/11/08 03:11:32;;;;;;;2.67;0.93;;;13.50;81.50;;;;;;5015140;28;20030;-90
2022/11/08 03:13:57;;;;;;;1.15;1.05;;;13.50;81.60;;;;;;5031057;28;20112;-90
2022/11/08 03:16:23;;;;;;;4.60;1.08;;;13.50;81.60;;;;;;5028516;28;20042;-90
2022/11/08 03:18:49;;;;;;;1.40;0.98;;;13.50;81.60;;;;;;5030885;28;20029;-90
2022/11/08 03:21:15;;;;;;;1.85;1.27;;;13.60;81.50;;;;;;5015381;28;20026;-95
2022/11/08 03:23:40;;;;;;;1.42;1.10;;;13.60;81.60;;;;;;5032999;28;20033;-95
2022/11/08 03:26:06;;;;;;;1.88;0.57;;;13.60;81.50;;;;;;5016898;28;20025;-94
2022/11/08 03:28:32;;;;;;;1.08;0.68;;;13.60;81.50;;;;;;5032958;28;20030;-93
2022/11/08 03:30:58;;;;;;;6.13;1.02;;;13.60;81.50;;;;;;5032933;28;20108;-93
2022/11/08 03:33:24;;;;;;;1.25;0.90;;;13.60;81.50;;;;;;5016591;28;20022;-94
2022/11/08 03:36:11;;;;;;;1.77;1.13;;;13.60;81.60;;;;;;5017804;28;20026;-94
2022/11/08 03:38:52;;;;;;;6.20;1.40;;;13.50;81.70;;;;;;5032683;28;20034;-95
2022/11/08 03:41:27;;;;;;;1.67;1.15;;;13.50;81.60;;;;;;5033398;28;20056;-94
2022/11/08 03:43:53;;;;;;;1.08;0.98;;;13.50;81.60;;;;;;5017148;28;20029;-94
2022/11/08 03:46:18;;;;;;;4.57;0.93;;;13.50;81.60;;;;;;5015819;28;20116;-93
2022/11/08 03:48:44;;;;;;;3.60;1.30;;;13.50;81.60;;;;;;5032347;28;20056;-93
2022/11/08 03:51:10;;;;;;;0.73;0.60;;;13.50;81.60;;;;;;5015583;28;20037;-93
2022/11/08 03:53:35;;;;;;;1.30;0.70;;;13.50;81.50;;;;;;5015775;28;20113;-95
2022/11/08 03:56:01;;;;;;;2.05;0.55;;;13.60;81.40;;;;;;5016031;28;20539;-93
2022/11/08 03:58:27;;;;;;;0.68;0.60;;;13.60;81.30;;;;;;5015279;28;20053;-95
2022/11/08 04:00:53;;;;;;;1.38;0.73;;;13.50;81.20;;;;;;5032210;28;20018;-93
2022/11/08 04:03:18;;;;;;;2.75;0.80;;;13.50;81.20;;;;;;5033454;28;20037;-94
2022/11/08 04:05:44;;;;;;;1.20;0.73;;;13.50;81.20;;;;;;5016054;28;20040;-94
2022/11/08 04:08:10;;;;;;;2.03;0.85;;;13.50;81.10;;;;;;5018875;28;20038;-93
2022/11/08 04:10:35;;;;;;;2.92;0.75;;;13.50;81.10;;;;;;5018349;28;20080;-93
2022/11/08 04:15:54;;;;;;;1.48;1.35;;;13.40;81.00;;;;;;5036113;28;20040;-94
2022/11/08 04:21:23;;;;;;;1.48;0.95;;;13.40;81.10;;;;;;5036657;28;20142;-93
2022/11/08 04:23:50;;;;;;;0.60;0.55;;;13.30;81.00;;;;;;5018441;28;20022;-93
2022/11/08 04:26:17;;;;;;;0.40;0.40;;;13.30;81.00;;;;;;5035125;28;20037;-95
2022/11/08 04:28:43;;;;;;;0.95;0.47;;;13.30;81.00;;;;;;5018258;28;20051;-93
2022/11/08 04:31:15;;;;;;;1.20;0.57;;;13.30;80.90;;;;;;5017572;28;20528;-94
2022/11/08 04:33:41;;;;;;;;;;;13.30;80.90;;;;;;5035988;28;20022;-89
2022/11/08 04:36:10;;;;;;;0.55;0.55;;;13.20;80.90;;;;;;5032872;28;19915;-90
2022/11/08 04:38:36;;;;;;;3.80;0.93;;;13.20;81.00;;;;;;5016500;28;20079;-90
2022/11/08 04:41:05;;;;;;;1.30;0.85;;;13.20;81.00;;;;;;5032540;28;20545;-90
2022/11/08 04:43:31;;;;;;;3.22;0.60;;;13.20;80.90;;;;;;5047051;28;20472;-94
2022/11/08 04:46:02;;;;;;;2.80;0.85;;;13.20;80.90;;;;;;5034769;28;20014;-93
2022/11/08 04:48:28;;;;;;;2.00;1.00;;;13.20;80.80;;;;;;5051059;28;20174;-95
2022/11/08 04:50:54;;;;;;;2.10;0.77;;;13.20;80.80;;;;;;5051023;28;20022;-93
2022/11/08 04:53:20;;;;;;;1.17;0.70;;;13.20;80.70;;;;;;5017869;28;20057;-93
2022/11/08 04:55:46;;;;;;;0.63;0.50;;;13.20;80.70;;;;;;5019154;28;20057;-92
2022/11/08 04:58:12;;;;;;;0.90;0.77;;;13.20;80.60;;;;;;5018290;28;20107;-94
2022/11/08 05:00:38;;;;;;;1.45;0.57;;;13.20;80.60;;;;;;5018209;28;20112;-95
2022/11/08 05:03:03;;;;;;;0.50;0.50;;;13.20;80.60;;;;;;5018631;28;20137;-93
2022/11/08 05:05:29;;;;;;;3.03;0.75;;;13.20;80.50;;;;;;5017719;28;20029;-93
2022/11/08 05:07:55;;;;;;;0.35;0.35;;;13.10;80.40;;;;;;5033984;28;20069;-92
2022/11/08 05:10:20;;;;;;;1.20;0.80;;;13.10;80.40;;;;;;5017684;28;20026;-93
2022/11/08 05:12:46;;;;;;;3.17;0.98;;;13.10;80.40;;;;;;5017635;28;20036;-94
2022/11/08 05:15:12;;;;;;;1.73;1.10;;;13.10;80.30;;;;;;5050492;28;20036;-93
2022/11/08 05:17:38;;;;;;;1.38;1.02;;;13.10;80.30;;;;;;5032965;28;20099;-89
2022/11/08 05:25:37;;;;;;;0.75;0.65;;;13.00;80.30;;;;;;5034461;28;20072;-92
2022/11/08 05:28:03;;;;;;;2.05;0.80;;;13.00;80.20;;;;;;5034081;28;20547;-93
2022/11/08 05:30:29;;;;;;;0.80;0.68;;;13.00;80.20;;;;;;5017377;28;20053;-95
2022/11/08 05:32:54;;;;;;;2.97;1.10;;;13.00;80.20;;;;;;5034361;28;20029;-94
2022/11/08 05:35:21;;;;;;;1.48;1.13;;;13.00;80.20;;;;;;5017184;28;20032;-93
2022/11/08 05:37:47;;;;;;;3.28;0.90;;;13.00;80.20;;;;;;5018424;28;20033;-94
2022/11/08 05:40:13;;;;;;;1.63;0.90;;;13.00;80.10;;;;;;5034678;28;20493;-93
2022/11/08 05:42:39;;;;;;;3.53;1.15;;;13.00;80.10;;;;;;5016942;28;20172;-92
2022/11/08 05:45:05;;;;;;;1.58;0.93;;;13.00;80.00;;;;;;5016895;28;20029;-92
2022/11/08 05:47:30;;;;;;;3.25;0.95;;;13.00;80.10;;;;;;5017286;28;20017;-93
2022/11/08 05:49:56;;;;;;;1.45;0.77;;;12.90;80.00;;;;;;5034439;28;20022;-92
2022/11/08 05:52:22;;;;;;;0.90;0.57;;;13.00;80.10;;;;;;5033707;28;20061;-93
2022/11/08 05:54:47;;;;;;;2.17;0.95;;;13.00;80.10;;;;;;5017094;28;20041;-92
2022/11/08 05:57:13;;;;;;;1.13;0.82;;;13.00;80.10;;;;;;5033457;28;20124;-93
2022/11/08 05:59:39;;;;;;;0.75;0.60;;;13.00;80.10;;;;;;5016865;28;20036;-93
2022/11/08 06:02:05;;;;;;;1.58;0.70;;;12.90;80.00;;;;;;5017032;28;20061;-91
2022/11/08 06:04:30;;;;;;;1.38;0.68;;;13.00;80.00;;;;;;5016914;28;20032;-93
2022/11/08 06:06:56;;;;;;;3.30;1.55;;;13.00;79.90;;;;;;5016512;28;20081;-92
2022/11/08 06:09:22;;;;;;;0.98;0.88;;;13.00;79.70;;;;;;5014672;28;20468;-88
2022/11/08 06:11:47;;;;;;;1.45;1.17;;;13.00;79.80;;;;;;5032667;28;20539;-88
2022/11/08 06:14:13;;;;;;;4.65;1.02;;;12.90;79.80;;;;;;4998951;28;20092;-88
2022/11/08 06:16:39;;;;;;;1.13;1.00;;;13.00;79.80;;;;;;5028024;28;20116;-89
2022/11/08 06:19:04;;;;;;;1.30;0.57;;;12.90;79.80;;;;;;5024079;28;20089;-88
2022/11/08 06:21:30;;;;;;;3.00;1.00;;;12.90;79.80;;;;;;5031637;28;20045;-88
2022/11/08 06:23:56;;;;;;;1.25;0.77;;;12.90;79.80;;;;;;5024130;28;20116;-89
2022/11/08 06:26:22;;;;;;;0.82;0.82;;;13.00;79.70;;;;;;5029776;28;20025;-88
2022/11/08 06:28:48;;;;;;;0.93;0.60;;;13.00;79.60;;;;;;5033471;28;20009;-88
2022/11/08 06:31:14;;;;;;;2.42;1.10;;;13.00;79.50;;;;;;5033119;28;20116;-88
2022/11/08 06:33:39;;;;;;;1.92;0.85;;;13.00;79.50;;;;;;5000963;28;20486;-88
2022/11/08 06:36:06;;;;;;;1.20;0.60;;;13.10;79.40;;;;;;5037007;28;20017;-88
2022/11/08 06:38:31;;;;;;;1.58;0.88;;;13.10;79.40;;;;;;5033894;28;20100;-88
2022/11/08 06:41:01;;;;;;;1.27;0.85;;;13.10;79.30;;;;;;5035558;28;20113;-88
2022/11/08 06:43:27;;;;;;;0.90;0.77;;;13.10;79.80;;;;;;5000296;28;20034;-91
2022/11/08 06:45:52;;;;;;;2.65;0.50;;;13.10;79.20;;;;;;5017188;28;20026;-93
2022/11/08 06:48:18;;;;;;;1.92;0.70;;;13.10;79.20;;;;;;5030380;28;20033;-91
2022/11/08 06:50:43;;;;;;;2.35;0.70;;;13.00;79.20;;;;;;5036489;28;20041;-91
2022/11/08 06:53:13;;;;;;;1.10;0.70;;;13.00;79.20;;;;;;5036414;28;20078;-92
2022/11/08 06:55:39;;;;;;;0.63;0.63;;;13.00;79.20;;;;;;5036234;28;20030;-91
2022/11/08 06:58:05;;;;;;;3.15;1.25;;;13.00;79.20;;;;;;5036069;28;20056;-91
2022/11/08 07:00:31;;;;;;;1.00;0.90;;;13.00;79.20;;;;;;5036201;28;20017;-91
2022/11/08 07:03:00;;;;;;;1.67;1.05;;;13.10;79.20;;;;;;5036349;28;20033;-91
2022/11/08 07:05:29;;;;;;;0.60;0.60;;;13.10;79.10;;;;;;5035897;28;20112;-91
2022/11/08 07:07:57;;;;;;;0.60;0.60;;;13.10;79.20;;;;;;5032436;28;20137;-92
2022/11/08 07:10:25;;;;;;;1.00;0.68;;;13.10;79.10;;;;;;5032783;28;20018;-92
2022/11/08 07:13:23;;;;;;;1.52;0.80;;;13.10;79.00;;;;;;5032711;28;20022;-93
2022/11/08 07:15:49;;;;;;;1.13;0.85;;;13.20;78.80;;;;;;5011385;28;20076;-88
2022/11/08 07:18:16;;;;;;;1.85;1.15;;;13.10;78.80;;;;;;5031731;28;20057;-88
2022/11/08 07:20:42;;;;;;;0.70;0.70;;;13.10;78.70;;;;;;5012633;28;20025;-89
2022/11/08 07:23:10;;;;;;;0.95;0.85;;;13.20;78.70;;;;;;5019215;28;20098;-88
2022/11/08 07:25:36;;;;;;;1.25;0.95;;;13.20;78.50;;;;;;5028433;28;20105;-89
2022/11/08 07:28:04;;;;;;;0.82;0.65;;;13.20;78.40;;;;;;5013979;28;20176;-88
2022/11/08 07:30:30;;;;;;;1.58;0.68;;;13.30;78.40;;;;;;5014623;28;20048;-89
2022/11/08 07:32:57;;;;;;;0.63;0.63;;;13.30;78.40;;;;;;5011507;28;20029;-88
2022/11/08 07:35:24;;;;;;;0.60;0.60;;;13.30;78.40;;;;;;5037188;28;20061;-88
2022/11/08 07:37:50;;;;;;;0.63;0.60;;;13.30;78.40;;;;;;4997908;28;20083;-88
2022/11/08 07:40:16;;;;;;;0.60;0.60;;;13.30;78.30;;;;;;4980455;28;20408;-89
2022/11/08 07:42:42;;;;;;;1.17;0.82;;;13.40;78.20;;;;;;4995810;28;20022;-88
2022/11/08 07:45:09;;;;;;;2.67;1.00;;;13.40;78.70;;;;;;5013422;28;20022;-89
2022/11/08 07:47:35;;;;;;;1.55;0.90;;;13.40;78.10;;;;;;5029770;28;20022;-89
2022/11/08 07:50:01;;;;;;;0.60;0.60;;;13.40;78.00;;;;;;5020423;28;20049;-88
2022/11/08 07:52:27;;;;;;;0.75;0.73;;;13.40;77.90;;;;;;5033274;28;20018;-88
2022/11/08 07:54:52;;;;;;;1.60;0.70;;;13.50;77.90;;;;;;4980538;28;20127;-88
2022/11/08 07:57:18;;;;;;;3.47;1.05;;;13.40;77.70;;;;;;5029478;28;20146;-89
2022/11/08 07:59:44;;;;;;;0.85;0.85;;;13.50;77.70;;;;;;5008116;28;20038;-89
2022/11/08 08:02:10;;;;;;;0.77;0.55;;;13.50;77.60;;;;;;5012259;28;20029;-88
2022/11/08 08:04:36;;;;;;;2.55;1.02;;;13.50;77.50;;;;;;5016598;28;20026;-89
2022/11/08 08:07:02;;;;;;;2.38;1.08;;;13.60;77.50;;;;;;5030209;28;20040;-90
2022/11/08 08:09:28;;;;;;;0.77;0.60;;;13.60;77.30;;;;;;5013043;28;20022;-88
2022/11/08 08:11:54;;;;;;;0.57;0.52;;;13.70;77.10;;;;;;5014106;28;20045;-89
2022/11/08 08:14:20;;;;;;;1.25;0.82;;;13.70;76.90;;;;;;5016468;28;20499;-92
2022/11/08 08:16:46;;;;;;;1.00;0.90;;;13.80;76.70;;;;;;5019200;28;20079;-87
2022/11/08 08:19:11;;;;;;;0.82;0.70;;;13.80;76.60;;;;;;5026389;28;20026;-89
2022/11/08 08:21:37;;;;;;;0.55;0.55;;;13.80;76.50;;;;;;5014112;28;20037;-89
2022/11/08 08:24:04;;;;;;;1.48;0.60;;;13.80;76.40;;;;;;4993848;28;20030;-88
2022/11/08 08:26:29;;;;;;;1.52;0.90;;;13.90;76.40;;;;;;4977305;28;20034;-90
2022/11/08 08:28:55;;;;;;;0.50;0.50;;;13.90;76.20;;;;;;5007109;28;20030;-91
2022/11/08 08:31:20;;;;;;;1.98;0.68;;;14.00;76.20;;;;;;4998299;28;20026;-92
2022/11/08 08:33:46;;;;;;;4.03;0.73;;;14.00;76.10;;;;;;5014156;28;20033;-89
2022/11/08 08:36:12;;;;;;;1.27;0.95;;;14.00;75.80;;;;;;5030527;28;20010;-88
2022/11/08 08:38:38;;;;;;;0.80;0.73;;;14.10;75.70;;;;;;5014131;28;20373;-90
2022/11/08 08:41:04;;;;;;;1.77;0.60;;;14.10;75.30;;;;;;5030418;28;20018;-90
2022/11/08 08:43:31;;;;;;;1.40;0.70;;;14.20;75.30;;;;;;5029212;28;20064;-89
2022/11/08 08:46:01;;;;;;;0.40;0.40;;;14.30;74.70;;;;;;5028775;28;20414;-90
2022/11/08 08:48:27;;;;;;;0.90;0.75;;;14.40;74.40;;;;;;5012933;28;20036;-88
2022/11/08 08:50:53;;;;;;;0.50;0.50;;;14.40;74.30;;;;;;5028272;28;20068;-89
2022/11/08 08:53:18;;;;;;;0.95;0.70;;;14.50;74.30;;;;;;5033360;28;20030;-89
2022/11/08 08:55:44;;;;;;;0.73;0.70;;;14.50;73.80;;;;;;5019692;28;20516;-89
2022/11/08 08:58:10;;;;;;;0.90;0.80;;;14.60;73.50;;;;;;5005955;28;20027;-89
2022/11/08 09:00:36;;;;;;;3.15;0.93;;;14.60;73.40;;;;;;4995833;28;20076;-89
2022/11/08 09:03:08;;;;;;;0.40;0.40;;;14.70;73.20;;;;;;5011729;28;20033;-88
2022/11/08 09:05:34;;;;;;;1.00;0.90;;;14.70;72.80;;;;;;5031322;28;20029;-90
2022/11/08 09:08:00;;;;;;;0.40;0.40;;;14.70;72.70;;;;;;5026009;28;20562;-89
2022/11/08 09:10:26;;;;;;;1.77;0.50;;;14.80;72.70;;;;;;5030497;28;20030;-89
2022/11/08 09:12:52;;;;;;;1.38;0.75;;;14.80;72.60;;;;;;5016204;28;20026;-90
2022/11/08 09:15:18;;;;;;;0.73;0.55;;;14.90;72.20;;;;;;5037943;28;20211;-89
2022/11/08 09:17:44;;;;;;;0.45;0.45;;;14.90;71.90;;;;;;5012636;28;20037;-89
2022/11/08 09:20:11;;;;;;;2.17;0.88;;;14.90;71.80;;;;;;5029904;28;20042;-90
2022/11/08 09:22:37;;;;;;;1.00;0.57;;;15.00;71.60;;;;;;5029866;28;20485;-91
2022/11/08 09:25:04;;;;;;;2.20;0.50;;;15.00;71.50;;;;;;5027232;28;20034;-91
2022/11/08 09:27:30;;;;;;;1.25;0.70;;;15.00;71.50;;;;;;5003669;28;20093;-90
2022/11/08 09:29:59;;;;;;;1.55;0.50;;;15.00;71.40;;;;;;5029937;28;20026;-90
2022/11/08 09:32:28;;;;;;;1.15;0.70;;;15.00;71.30;;;;;;5010488;28;20037;-91
2022/11/08 09:34:54;;;;;;;0.90;0.50;;;15.00;71.40;;;;;;5012168;28;20095;-90
2022/11/08 09:37:22;;;;;;;1.15;0.65;;;15.10;71.30;;;;;;5029646;28;20034;-90
2022/11/08 09:39:47;;;;;;;0.93;0.85;;;15.10;71.10;;;;;;5028268;28;20026;-91
2022/11/08 09:42:31;;;;;;;0.60;0.60;;;15.10;70.80;;;;;;5027104;28;20104;-90
2022/11/08 09:45:20;;;;;;;1.00;0.70;;;15.10;70.30;;;;;;5030382;28;20018;-90
2022/11/08 09:47:53;;;;;;;1.23;0.95;;;15.20;70.40;;;;;;5021211;28;20022;-90
2022/11/08 09:50:33;;;;;;;2.13;0.93;;;15.20;70.30;;;;;;5027079;28;20068;-89
2022/11/08 09:53:17;;;;;;;0.90;0.75;;;15.30;70.20;;;;;;5028502;28;20030;-89
2022/11/08 09:55:55;;;;;;;0.73;0.38;;;15.30;70.10;;;;;;5030866;28;20499;-90
2022/11/08 09:58:26;;;;;;;0.65;0.60;;;15.40;70.00;;;;;;5022640;28;20029;-89
2022/11/08 10:00:52;;;;;;;0.53;0.53;;;15.40;69.90;;;;;;5032613;28;20547;-89
2022/11/08 10:03:22;;;;;;;0.82;0.50;;;15.40;69.90;;;;;;5034606;28;20066;-89
2022/11/08 10:06:32;;;;;;;1.20;0.70;;;15.40;69.70;;;;;;5030283;28;20022;-89
2022/11/08 10:09:01;;;;;;;1.25;1.10;;;15.30;69.40;;;;;;5014289;28;20416;-88
2022/11/08 10:11:53;;;;;;;0.57;0.57;;;15.30;69.50;;;;;;5030066;28;20400;-88
2022/11/08 10:14:37;;;;;;;0.98;0.70;;;15.30;69.70;;;;;;5031496;28;20435;-90
2022/11/08 10:17:39;;;;;;;2.25;0.90;;;15.40;69.80;;;;;;5024822;28;20045;-90
2022/11/08 10:20:36;;;;;;;0.75;0.50;;;15.40;69.50;;;;;;5026651;28;20108;-90
2022/11/08 10:23:09;;;;;;;1.92;1.08;;;15.40;69.00;;;;;;5031340;28;20515;-90
2022/11/08 10:25:44;;;;;;;3.22;0.77;;;15.40;69.10;;;;;;5043716;28;20057;-90
2022/11/08 10:28:14;;;;;;;0.95;0.82;;;15.40;69.10;;;;;;5012549;28;20080;-90
2022/11/08 10:30:43;;;;;;;0.50;0.50;;;15.50;69.30;;;;;;5030427;28;20532;-91
2022/11/08 10:33:18;;;;;;;1.10;0.85;;;15.60;69.30;;;;;;5024883;28;20022;-90
2022/11/08 10:35:56;;;;;;;1.10;0.98;;;15.70;69.10;;;;;;5027971;28;20459;-90
2022/11/08 10:38:30;;;;;;;0.57;0.50;;;15.70;68.90;;;;;;5032024;28;20038;-91
2022/11/08 10:41:06;;;;;;;0.85;0.82;;;15.70;68.90;;;;;;5031228;28;20038;-91
2022/11/08 10:43:50;;;;;;;2.10;0.60;;;15.80;68.80;;;;;;5031701;28;20567;-91
2022/11/08 10:46:45;;;;;;;0.70;0.70;;;15.80;68.70;;;;;;5030955;28;20612;-91
2022/11/08 10:49:11;;;;;;;0.70;0.63;;;15.80;68.90;;;;;;5018906;28;20037;-91
2022/11/08 10:51:36;;;;;;;5.13;1.02;;;15.90;67.50;;;;;;5032054;28;20488;-91
2022/11/08 10:54:02;;;;;;;0.70;0.60;;;15.90;67.70;;;;;;5031868;28;20508;-89
2022/11/08 10:56:28;;;;;;;0.88;0.50;;;15.90;67.70;;;;;;5028525;28;20137;-90
2022/11/08 10:58:53;;;;;;;0.80;0.68;;;15.90;67.60;;;;;;5026046;28;20023;-89
2022/11/08 11:01:22;;;;;;;0.73;0.52;;;15.90;67.70;;;;;;4995216;28;20044;-92
2022/11/08 11:03:49;;;;;;;2.40;1.25;;;15.90;67.50;;;;;;5032270;28;20025;-92
2022/11/08 11:06:28;;;;;;;1.08;0.43;;;15.80;67.10;;;;;;5031315;28;20034;-93
2022/11/08 11:08:57;;;;;;;0.40;0.40;;;15.80;67.10;;;;;;5031684;28;20076;-90
2022/11/08 11:11:31;;;;;;;4.13;0.93;;;15.80;67.40;;;;;;5036212;28;20126;-91
2022/11/08 11:14:05;;;;;;;0.68;0.68;;;15.80;67.20;;;;;;5014555;28;20022;-90
2022/11/08 11:16:31;;;;;;;0.68;0.40;;;15.80;67.30;;;;;;5031278;28;20029;-89
2022/11/08 11:19:00;;;;;;;0.60;0.60;;;15.80;67.40;;;;;;5038178;28;20037;-89
2022/11/08 11:21:33;;;;;;;1.30;0.77;;;15.80;67.30;;;;;;5013314;28;20018;-89
2022/11/08 11:24:09;;;;;;;0.90;0.68;;;15.80;67.40;;;;;;5015543;28;20040;-91
2022/11/08 11:26:40;;;;;;;2.20;0.45;;;15.80;67.40;;;;;;5031895;28;20097;-91
2022/11/08 11:29:14;;;;;;;0.75;0.68;;;15.80;67.60;;;;;;5016389;28;20472;-92
2022/11/08 11:31:41;;;;;;;0.90;0.70;;;15.80;67.60;;;;;;5031968;28;20072;-90
2022/11/08 11:34:16;;;;;;;1.05;0.65;;;15.90;67.70;;;;;;5021175;28;20026;-88
2022/11/08 11:37:02;;;;;;;0.50;0.50;;;15.90;67.60;;;;;;5014525;28;20480;-89
2022/11/08 11:39:38;;;;;;;0.57;0.55;;;16.00;67.50;;;;;;5029151;28;20033;-88
2022/11/08 11:42:08;;;;;;;1.40;0.50;;;16.10;67.40;;;;;;5030982;28;20026;-88
2022/11/08 11:44:47;;;;;;;0.80;0.80;;;16.20;67.50;;;;;;5011033;28;20026;-88
2022/11/08 11:47:33;;;;;;;2.30;0.82;;;16.20;66.70;;;;;;5027876;28;20459;-88
2022/11/08 11:50:22;;;;;;;0.95;0.88;;;16.20;66.90;;;;;;5025841;28;20041;-88
2022/11/08 11:52:48;;;;;;;2.65;0.75;;;16.20;67.00;;;;;;5019904;28;20030;-89
2022/11/08 11:55:15;;;;;;;0.40;0.40;;;16.20;66.80;;;;;;5011701;28;20042;-89
2022/11/08 11:58:34;;;;;;;0.70;0.43;;;16.20;66.60;;;;;;5027991;28;20041;-89
2022/11/08 12:01:15;;;;;;;0.50;0.50;;;16.20;66.60;;;;;;4987702;28;20125;-88
2022/11/08 12:03:49;;;;;;;0.75;0.75;;;16.20;66.60;;;;;;5026980;28;20061;-89
2022/11/08 12:06:33;;;;;;;0.52;0.47;;;16.30;66.80;;;;;;5032123;28;20025;-89
2022/11/08 12:09:22;;;;;;;0.80;0.68;;;16.40;66.90;;;;;;5027137;28;20103;-89
2022/11/08 12:12:14;;;;;;;2.50;0.43;;;16.50;66.80;;;;;;4982192;28;20100;-88
2022/11/08 12:14:48;;;;;;;0.40;0.40;;;16.70;66.30;;;;;;4991483;28;20061;-93
2022/11/08 12:17:26;;;;;;;0.75;0.47;;;16.70;66.10;;;;;;5034391;28;20049;-93
2022/11/08 12:20:37;;;;;;;2.95;0.65;;;16.80;66.30;;;;;;5010521;28;20049;-93
2022/11/08 12:23:24;;;;;;;2.80;0.73;;;16.90;65.40;;;;;;4999810;28;20064;-88
2022/11/08 12:26:16;;;;;;;1.20;0.93;;;16.90;65.40;;;;;;5031637;28;20531;-89
2022/11/08 12:29:05;;;;;;;1.15;0.70;;;17.00;65.30;;;;;;5017544;28;20033;-89
2022/11/08 12:31:53;;;;;;;2.40;1.10;;;17.10;65.20;;;;;;5012190;28;20495;-89
2022/11/08 12:34:43;;;;;;;1.30;0.70;;;17.10;65.00;;;;;;5000300;28;20380;-89
2022/11/08 12:37:31;;;;;;;2.50;0.80;;;17.30;65.10;;;;;;5033839;28;20025;-92
2022/11/08 12:40:16;;;;;;;1.05;0.82;;;17.50;64.30;;;;;;5035020;28;20025;-93
2022/11/08 12:42:48;;;;;;;0.88;0.80;;;17.60;64.10;;;;;;5033910;28;20468;-92
2022/11/08 12:45:21;;;;;;;0.85;0.77;;;17.50;63.90;;;;;;5017501;28;20022;-92
2022/11/08 12:47:56;;;;;;;2.17;0.50;;;17.40;64.20;;;;;;5021205;28;20028;-91
2022/11/08 12:50:37;;;;;;;0.80;0.70;;;17.20;64.50;;;;;;5033826;28;20484;-92
2022/11/08 12:53:16;;;;;;;3.45;0.95;;;17.10;64.80;;;;;;5034448;28;20416;-92
2022/11/08 12:55:46;;;;;;;0.82;0.47;;;17.00;65.20;;;;;;5017088;28;20056;-92
2022/11/08 12:58:47;;;;;;;0.60;0.60;;;16.90;65.40;;;;;;5034109;28;20029;-91
2022/11/08 13:01:16;;;;;;;1.67;0.90;;;16.80;65.40;;;;;;5033494;28;20018;-91
2022/11/08 13:03:41;;;;;;;1.48;0.80;;;16.70;65.70;;;;;;5018445;28;20040;-92
2022/11/08 13:06:17;;;;;;;0.40;0.40;;;16.60;65.60;;;;;;5017118;28;20021;-93
2022/11/08 13:09:06;;;;;;;1.05;0.80;;;16.60;65.90;;;;;;5032711;28;20045;-92
2022/11/08 13:11:56;;;;;;;0.73;0.68;;;16.60;66.10;;;;;;5032606;28;20067;-92
2022/11/08 13:14:23;;;;;;;1.15;0.50;;;16.60;66.10;;;;;;5014692;28;20018;-92
2022/11/08 13:17:07;;;;;;;0.82;0.82;;;16.50;65.90;;;;;;5016422;28;20046;-92
2022/11/08 13:19:57;;;;;;;1.67;0.60;;;16.50;65.70;;;;;;5029138;28;20033;-92
2022/11/08 13:22:29;;;;;;;0.73;0.65;;;16.60;65.90;;;;;;5031158;28;20099;-90
2022/11/08 13:25:00;;;;;;;1.70;0.80;;;16.60;65.90;;;;;;5032666;28;20034;-91